Time;durP1;ratioP1;P1;durP2;ratioP2;P2;SDS_P1;SDS_P2;PMS_P1;PMS_P2;Temp;Humidity;BMP_temperature;BMP_pressure;BME280_temperature;BME280_humidity;BME280_pressure;Samples;Min_cycle;Max_cycle;Signal;HPM_P1;HPM_P2
2023/06/22 00:00:55;;;;;;;0.00;0.00;;;19.30;80.70;;;;;;5048534;28;20079;-68
2023/06/22 00:03:22;;;;;;;0.00;0.00;;;19.30;80.40;;;;;;5031915;28;20489;-68
2023/06/22 00:05:49;;;;;;;0.00;0.00;;;19.30;80.30;;;;;;5037349;28;20055;-68
2023/06/22 00:08:15;;;;;;;0.00;0.00;;;19.30;80.60;;;;;;5029145;28;20128;-68
2023/06/22 00:10:41;;;;;;;0.00;0.00;;;19.30;80.70;;;;;;5029170;28;20120;-68
2023/06/22 00:13:08;;;;;;;0.00;0.00;;;19.30;80.50;;;;;;5028537;28;20045;-68
2023/06/22 00:15:34;;;;;;;0.20;0.20;;;19.20;80.10;;;;;;5028942;28;20057;-68
2023/06/22 00:18:00;;;;;;;0.00;0.00;;;19.20;80.10;;;;;;5014914;28;20063;-68
2023/06/22 00:20:30;;;;;;;0.00;0.00;;;19.10;80.10;;;;;;5029292;28;20037;-68
2023/06/22 00:22:56;;;;;;;0.00;0.00;;;19.10;80.10;;;;;;5028901;28;20072;-68
2023/06/22 00:25:22;;;;;;;0.00;0.00;;;19.00;80.10;;;;;;5028758;28;20048;-68
2023/06/22 00:27:48;;;;;;;0.00;0.00;;;19.00;80.10;;;;;;5029016;28;20042;-68
2023/06/22 00:30:16;;;;;;;0.00;0.00;;;19.00;80.10;;;;;;5025577;28;20709;-68
2023/06/22 00:32:41;;;;;;;0.10;0.10;;;19.00;80.30;;;;;;5009668;28;20050;-68
2023/06/22 00:35:08;;;;;;;0.00;0.00;;;18.90;80.70;;;;;;5018471;28;20053;-68
2023/06/22 00:37:35;;;;;;;0.00;0.00;;;18.90;80.90;;;;;;5028258;28;20137;-68
2023/06/22 00:40:01;;;;;;;0.00;0.00;;;18.80;81.00;;;;;;5030756;28;20492;-68
2023/06/22 00:42:27;;;;;;;0.00;0.00;;;18.80;81.00;;;;;;5030337;28;20053;-68
2023/06/22 00:44:53;;;;;;;0.00;0.00;;;18.80;80.90;;;;;;5046520;28;20794;-68
2023/06/22 00:47:19;;;;;;;0.00;0.00;;;18.80;81.30;;;;;;5016643;28;20482;-69
2023/06/22 00:49:46;;;;;;;0.00;0.00;;;18.80;81.20;;;;;;5028651;28;20054;-68
2023/06/22 00:52:20;;;;;;;0.00;0.00;;;18.80;81.40;;;;;;5035146;28;20041;-68
2023/06/22 00:54:50;;;;;;;0.00;0.00;;;18.80;81.50;;;;;;5012041;28;20080;-68
2023/06/22 00:57:17;;;;;;;0.00;0.00;;;18.80;81.50;;;;;;5028951;28;20048;-68
2023/06/22 00:59:44;;;;;;;0.00;0.00;;;18.80;81.70;;;;;;5024271;28;20041;-68
2023/06/22 01:02:10;;;;;;;0.00;0.00;;;18.80;81.80;;;;;;5031047;28;20402;-68
2023/06/22 01:04:37;;;;;;;0.00;0.00;;;18.70;81.70;;;;;;5032211;28;20037;-68
2023/06/22 01:07:18;;;;;;;0.00;0.00;;;18.60;82.10;;;;;;5029020;28;20069;-68
2023/06/22 01:09:53;;;;;;;0.00;0.00;;;18.70;82.30;;;;;;5022812;28;20089;-68
2023/06/22 01:12:19;;;;;;;0.00;0.00;;;18.70;82.20;;;;;;5010277;28;20508;-68
2023/06/22 01:14:58;;;;;;;0.00;0.00;;;18.70;82.60;;;;;;5031623;28;20053;-68
2023/06/22 01:17:25;;;;;;;0.00;0.00;;;18.70;82.60;;;;;;5040872;28;20037;-68
2023/06/22 01:19:57;;;;;;;0.00;0.00;;;18.70;82.80;;;;;;5033431;28;20049;-68
2023/06/22 01:22:30;;;;;;;0.00;0.00;;;18.70;82.80;;;;;;5020190;28;20085;-68
2023/06/22 01:25:13;;;;;;;0.00;0.00;;;18.70;82.60;;;;;;5031181;28;20077;-68
2023/06/22 01:28:15;;;;;;;0.00;0.00;;;18.70;82.70;;;;;;5043065;28;20045;-69
2023/06/22 01:30:42;;;;;;;0.00;0.00;;;18.70;83.10;;;;;;5027660;28;20152;-68
2023/06/22 01:33:12;;;;;;;0.00;0.00;;;18.80;83.00;;;;;;5042488;28;20413;-68
2023/06/22 01:35:38;;;;;;;0.00;0.00;;;18.80;83.10;;;;;;5034774;28;20061;-69
2023/06/22 01:38:05;;;;;;;0.00;0.00;;;18.70;83.00;;;;;;5025741;28;20046;-68
2023/06/22 01:40:32;;;;;;;0.00;0.00;;;18.70;83.40;;;;;;5045688;28;20061;-68
2023/06/22 01:43:00;;;;;;;0.00;0.00;;;18.70;83.50;;;;;;5044848;28;20049;-69
2023/06/22 01:45:27;;;;;;;0.00;0.00;;;18.80;83.40;;;;;;5036340;28;20041;-68
2023/06/22 01:47:54;;;;;;;0.00;0.00;;;18.70;83.10;;;;;;5037894;28;20129;-69
2023/06/22 01:50:20;;;;;;;0.00;0.00;;;18.80;83.20;;;;;;5035152;28;20612;-69
2023/06/22 01:52:45;;;;;;;0.00;0.00;;;18.70;83.10;;;;;;5051673;28;20045;-69
2023/06/22 01:55:11;;;;;;;0.00;0.00;;;18.70;83.40;;;;;;5033466;28;20048;-69
2023/06/22 01:57:38;;;;;;;0.10;0.10;;;18.70;83.60;;;;;;5016231;28;20126;-70
2023/06/22 02:00:11;;;;;;;0.00;0.00;;;18.70;83.80;;;;;;5051735;28;20045;-69
2023/06/22 02:02:50;;;;;;;0.00;0.00;;;18.70;83.40;;;;;;5051755;28;20033;-69
2023/06/22 02:05:18;;;;;;;0.00;0.00;;;18.70;83.60;;;;;;5038900;28;20052;-68
2023/06/22 02:08:05;;;;;;;0.00;0.00;;;18.70;83.50;;;;;;5034144;28;20184;-68
2023/06/22 02:10:32;;;;;;;0.00;0.00;;;18.80;83.60;;;;;;5031878;28;20103;-68
2023/06/22 02:12:59;;;;;;;0.00;0.00;;;18.70;83.70;;;;;;5039484;28;20050;-69
2023/06/22 02:15:25;;;;;;;0.00;0.00;;;18.70;84.00;;;;;;5029915;28;20046;-69
2023/06/22 02:17:51;;;;;;;0.00;0.00;;;18.70;83.80;;;;;;5003617;28;20124;-69
2023/06/22 02:20:17;;;;;;;0.00;0.00;;;18.70;83.80;;;;;;5032065;28;20622;-69
2023/06/22 02:22:43;;;;;;;0.00;0.00;;;18.70;83.90;;;;;;5042751;28;20092;-70
2023/06/22 02:25:08;;;;;;;0.00;0.00;;;18.70;83.80;;;;;;5018146;28;20528;-68
2023/06/22 02:27:34;;;;;;;0.00;0.00;;;18.70;83.80;;;;;;5039313;28;20034;-68
2023/06/22 02:30:00;;;;;;;0.00;0.00;;;18.70;83.70;;;;;;5030726;28;20084;-68
2023/06/22 02:32:26;;;;;;;0.17;0.17;;;18.70;83.50;;;;;;5030604;28;20041;-68
2023/06/22 02:34:52;;;;;;;0.00;0.00;;;18.60;83.50;;;;;;5036367;28;20057;-67
2023/06/22 02:37:18;;;;;;;0.13;0.13;;;18.60;83.50;;;;;;5030323;28;20135;-68
2023/06/22 02:39:44;;;;;;;0.00;0.00;;;18.60;83.50;;;;;;5027613;28;20096;-68
2023/06/22 02:42:13;;;;;;;0.00;0.00;;;18.60;83.60;;;;;;4977384;28;20877;-68
2023/06/22 02:44:38;;;;;;;0.00;0.00;;;18.60;83.80;;;;;;5026342;28;20175;-68
2023/06/22 02:47:04;;;;;;;0.00;0.00;;;18.50;83.90;;;;;;5018959;28;20485;-68
2023/06/22 02:49:30;;;;;;;0.00;0.00;;;18.60;83.80;;;;;;5030893;28;20671;-68
2023/06/22 02:51:55;;;;;;;0.80;0.68;;;18.60;83.90;;;;;;5013942;28;20050;-68
2023/06/22 02:54:21;;;;;;;0.00;0.00;;;18.60;84.40;;;;;;5023979;28;20052;-68
2023/06/22 02:56:47;;;;;;;0.00;0.00;;;18.60;84.50;;;;;;5033268;28;20498;-68
2023/06/22 02:59:13;;;;;;;0.00;0.00;;;18.60;84.00;;;;;;5020545;28;20045;-68
2023/06/22 03:01:42;;;;;;;0.00;0.00;;;18.60;84.00;;;;;;5019529;28;20065;-68
2023/06/22 03:04:08;;;;;;;0.00;0.00;;;18.50;83.90;;;;;;5040169;28;20574;-68
2023/06/22 03:06:34;;;;;;;0.00;0.00;;;18.50;84.10;;;;;;5038642;28;20041;-69
2023/06/22 03:09:04;;;;;;;0.00;0.00;;;18.50;84.30;;;;;;5035593;28;20049;-68
2023/06/22 03:11:30;;;;;;;0.00;0.00;;;18.60;84.10;;;;;;5029897;28;20049;-69
2023/06/22 03:13:56;;;;;;;0.00;0.00;;;18.50;84.10;;;;;;5029086;28;20049;-68
2023/06/22 03:16:22;;;;;;;0.00;0.00;;;18.50;84.00;;;;;;5029761;28;20042;-68
2023/06/22 03:18:48;;;;;;;0.00;0.00;;;18.50;84.10;;;;;;5029969;28;20093;-68
2023/06/22 03:21:15;;;;;;;0.00;0.00;;;18.40;83.90;;;;;;5031500;28;20121;-68
2023/06/22 03:23:41;;;;;;;0.00;0.00;;;18.40;83.70;;;;;;5028911;28;20045;-68
2023/06/22 03:26:06;;;;;;;0.00;0.00;;;18.40;83.60;;;;;;5030400;28;20037;-68
2023/06/22 03:28:32;;;;;;;0.00;0.00;;;18.30;83.60;;;;;;5030191;28;20494;-68
2023/06/22 03:30:58;;;;;;;0.00;0.00;;;18.30;83.40;;;;;;5015792;28;20049;-68
2023/06/22 03:33:24;;;;;;;0.00;0.00;;;18.20;83.70;;;;;;5029807;28;20049;-68
2023/06/22 03:35:50;;;;;;;0.00;0.00;;;18.10;83.50;;;;;;5040903;28;20049;-68
2023/06/22 03:38:16;;;;;;;0.00;0.00;;;18.10;83.70;;;;;;5030252;28;20124;-68
2023/06/22 03:40:42;;;;;;;0.00;0.00;;;18.00;83.70;;;;;;5033772;28;20034;-69
2023/06/22 03:43:08;;;;;;;0.00;0.00;;;18.00;83.70;;;;;;5028247;28;20045;-69
2023/06/22 03:45:33;;;;;;;0.00;0.00;;;18.00;83.80;;;;;;5029905;28;20418;-68
2023/06/22 03:48:00;;;;;;;0.00;0.00;;;17.80;83.90;;;;;;5018798;28;20629;-68
2023/06/22 03:50:25;;;;;;;0.00;0.00;;;17.80;84.30;;;;;;5049548;28;20103;-69
2023/06/22 03:52:52;;;;;;;0.00;0.00;;;17.80;84.40;;;;;;5049256;28;20045;-68
2023/06/22 03:55:19;;;;;;;0.52;0.45;;;17.70;84.20;;;;;;5048868;28;20084;-68
2023/06/22 03:57:45;;;;;;;0.00;0.00;;;17.70;84.10;;;;;;5031153;28;20774;-69
2023/06/22 04:00:11;;;;;;;0.00;0.00;;;17.60;84.20;;;;;;5039795;28;20330;-69
2023/06/22 04:02:37;;;;;;;0.00;0.00;;;17.60;84.60;;;;;;5039457;28;20037;-68
2023/06/22 04:05:03;;;;;;;0.00;0.00;;;17.60;84.80;;;;;;5029411;28;20398;-69
2023/06/22 04:07:29;;;;;;;0.00;0.00;;;17.60;84.40;;;;;;5031052;28;20063;-69
2023/06/22 04:09:54;;;;;;;0.00;0.00;;;17.60;84.10;;;;;;5036789;28;20041;-68
2023/06/22 04:12:20;;;;;;;0.00;0.00;;;17.50;84.20;;;;;;5029074;28;20469;-68
2023/06/22 04:14:45;;;;;;;0.00;0.00;;;17.50;84.80;;;;;;5038288;28;20036;-68
2023/06/22 04:17:14;;;;;;;0.00;0.00;;;17.50;84.60;;;;;;5016133;28;20096;-68
2023/06/22 04:19:39;;;;;;;0.00;0.00;;;17.40;84.50;;;;;;5028650;28;20139;-68
2023/06/22 04:22:07;;;;;;;0.00;0.00;;;17.40;84.60;;;;;;5037342;28;20125;-68
2023/06/22 04:24:33;;;;;;;0.20;0.20;;;17.40;84.80;;;;;;5030639;28;20044;-69
2023/06/22 04:27:00;;;;;;;0.00;0.00;;;17.30;84.60;;;;;;5016257;28;20050;-69
2023/06/22 04:29:28;;;;;;;0.00;0.00;;;17.30;84.60;;;;;;5038535;28;20129;-68
2023/06/22 04:31:55;;;;;;;0.00;0.00;;;17.30;84.60;;;;;;5040995;28;20139;-67
2023/06/22 04:34:21;;;;;;;0.00;0.00;;;17.30;84.60;;;;;;5034494;28;20043;-67
2023/06/22 04:36:47;;;;;;;0.00;0.00;;;17.30;84.60;;;;;;5044927;28;20064;-67
2023/06/22 04:39:12;;;;;;;0.00;0.00;;;17.30;84.60;;;;;;5029082;28;20045;-69
2023/06/22 04:41:43;;;;;;;0.00;0.00;;;17.40;84.70;;;;;;5042454;28;20083;-69
2023/06/22 04:44:12;;;;;;;0.00;0.00;;;17.40;84.60;;;;;;5048669;28;20044;-71
2023/06/22 04:46:39;;;;;;;0.00;0.00;;;17.40;84.90;;;;;;5038569;28;20056;-71
2023/06/22 04:49:11;;;;;;;0.00;0.00;;;17.40;85.10;;;;;;5037245;28;20045;-72
2023/06/22 04:51:41;;;;;;;0.00;0.00;;;17.50;85.10;;;;;;5038692;28;20528;-66
2023/06/22 04:54:08;;;;;;;0.00;0.00;;;17.40;84.10;;;;;;5014560;28;20490;-69
2023/06/22 04:56:34;;;;;;;0.00;0.00;;;17.40;84.30;;;;;;5013092;28;20071;-69
2023/06/22 04:59:00;;;;;;;0.00;0.00;;;17.40;84.50;;;;;;5030604;28;20049;-69
2023/06/22 05:01:26;;;;;;;0.00;0.00;;;17.70;87.00;;;;;;5031297;28;20120;-69
2023/06/22 05:03:55;;;;;;;0.00;0.00;;;18.00;86.60;;;;;;5031492;28;20050;-69
2023/06/22 05:06:24;;;;;;;0.00;0.00;;;18.10;85.80;;;;;;5032348;28;20041;-69
2023/06/22 05:08:57;;;;;;;0.00;0.00;;;18.10;85.30;;;;;;5032880;28;20037;-69
2023/06/22 05:11:27;;;;;;;0.00;0.00;;;18.10;84.70;;;;;;5032621;28;20541;-69
2023/06/22 05:13:54;;;;;;;0.10;0.10;;;18.10;84.20;;;;;;5032471;28;20063;-70
2023/06/22 05:16:24;;;;;;;0.00;0.00;;;18.00;84.00;;;;;;5032557;28;20128;-69
2023/06/22 05:18:54;;;;;;;0.00;0.00;;;18.00;84.00;;;;;;5031938;28;20050;-69
2023/06/22 05:21:27;;;;;;;0.22;0.22;;;18.10;84.10;;;;;;5051585;28;20053;-69
2023/06/22 05:23:59;;;;;;;0.00;0.00;;;18.10;84.20;;;;;;5047306;28;20156;-69
2023/06/22 05:26:26;;;;;;;0.00;0.00;;;18.10;84.20;;;;;;5019219;28;20045;-69
2023/06/22 05:28:52;;;;;;;0.43;0.30;;;18.10;84.20;;;;;;5012410;28;20049;-69
2023/06/22 05:31:20;;;;;;;0.00;0.00;;;18.00;84.10;;;;;;4977660;28;20415;-70
2023/06/22 05:33:47;;;;;;;0.00;0.00;;;18.00;83.90;;;;;;5025371;28;20065;-69
2023/06/22 05:36:13;;;;;;;0.00;0.00;;;18.10;84.00;;;;;;5025059;28;20143;-69
2023/06/22 05:38:39;;;;;;;0.00;0.00;;;18.10;84.00;;;;;;5047692;28;20072;-69
2023/06/22 05:41:05;;;;;;;0.00;0.00;;;18.10;84.20;;;;;;5036974;28;20530;-68
2023/06/22 05:43:31;;;;;;;0.00;0.00;;;18.10;84.20;;;;;;5013756;28;20156;-69
2023/06/22 05:45:57;;;;;;;0.80;0.38;;;18.10;84.30;;;;;;5031531;28;20042;-69
2023/06/22 05:48:23;;;;;;;0.00;0.00;;;18.20;84.10;;;;;;5032743;28;20037;-69
2023/06/22 05:50:48;;;;;;;0.00;0.00;;;18.30;84.30;;;;;;5024123;28;20472;-68
2023/06/22 05:53:14;;;;;;;0.32;0.32;;;18.40;84.10;;;;;;5009550;28;20037;-67
2023/06/22 05:55:40;;;;;;;0.00;0.00;;;18.50;84.20;;;;;;5049696;28;20123;-68
2023/06/22 05:58:05;;;;;;;0.00;0.00;;;18.60;83.90;;;;;;5047910;28;20651;-68
2023/06/22 06:00:32;;;;;;;0.17;0.17;;;18.70;84.20;;;;;;5032433;28;20124;-68
2023/06/22 06:03:03;;;;;;;0.05;0.05;;;18.80;84.30;;;;;;5016143;28;20128;-68
2023/06/22 06:05:29;;;;;;;0.00;0.00;;;18.80;84.50;;;;;;5019807;28;20048;-68
2023/06/22 06:07:55;;;;;;;0.00;0.00;;;18.80;84.50;;;;;;5031457;28;20045;-68
2023/06/22 06:10:21;;;;;;;0.00;0.00;;;18.90;84.50;;;;;;4997694;28;20056;-69
2023/06/22 06:12:46;;;;;;;0.00;0.00;;;18.80;84.30;;;;;;5031182;28;20064;-69
2023/06/22 06:15:12;;;;;;;0.10;0.10;;;19.00;84.70;;;;;;5020522;28;20450;-67
2023/06/22 06:17:52;;;;;;;0.10;0.10;;;19.00;84.70;;;;;;5011551;28;20038;-68
2023/06/22 06:20:23;;;;;;;0.00;0.00;;;19.10;84.70;;;;;;5018772;28;20081;-69
2023/06/22 06:22:49;;;;;;;0.00;0.00;;;19.10;84.60;;;;;;5034218;28;20055;-71
2023/06/22 06:25:19;;;;;;;0.00;0.00;;;19.10;84.30;;;;;;5032214;28;20041;-68
2023/06/22 06:27:46;;;;;;;0.55;0.55;;;19.20;84.30;;;;;;5030450;28;20136;-68
2023/06/22 06:30:13;;;;;;;0.00;0.00;;;19.30;84.20;;;;;;4996729;28;20049;-69
2023/06/22 06:32:40;;;;;;;0.00;0.00;;;19.40;84.10;;;;;;5031575;28;20049;-68
2023/06/22 06:35:07;;;;;;;0.00;0.00;;;19.40;83.80;;;;;;5036519;28;20115;-70
2023/06/22 06:37:36;;;;;;;0.00;0.00;;;19.50;83.70;;;;;;5044092;28;20072;-69
2023/06/22 06:40:02;;;;;;;0.00;0.00;;;19.70;83.50;;;;;;5050956;28;20497;-70
2023/06/22 06:42:28;;;;;;;0.00;0.00;;;19.80;82.90;;;;;;5048138;28;20100;-70
2023/06/22 06:44:55;;;;;;;0.00;0.00;;;20.00;82.70;;;;;;5030529;28;20466;-70
2023/06/22 06:47:20;;;;;;;0.30;0.30;;;20.10;82.40;;;;;;5030994;28;20045;-69
2023/06/22 06:49:46;;;;;;;0.00;0.00;;;20.20;82.20;;;;;;5039703;28;20063;-70
2023/06/22 06:52:11;;;;;;;0.00;0.00;;;20.30;81.90;;;;;;5049850;28;20157;-69
2023/06/22 06:54:37;;;;;;;0.00;0.00;;;20.50;81.60;;;;;;5049678;28;20151;-70
2023/06/22 06:57:03;;;;;;;0.00;0.00;;;20.60;81.40;;;;;;5050240;28;20045;-69
2023/06/22 06:59:30;;;;;;;0.00;0.00;;;20.70;81.10;;;;;;5040477;28;20168;-69
2023/06/22 07:01:55;;;;;;;0.10;0.10;;;20.80;80.90;;;;;;5035633;28;20056;-70
2023/06/22 07:04:21;;;;;;;0.00;0.00;;;20.90;80.70;;;;;;5041948;28;20052;-69
2023/06/22 07:06:47;;;;;;;0.00;0.00;;;21.00;80.50;;;;;;5032217;28;20041;-69
2023/06/22 07:09:12;;;;;;;0.00;0.00;;;21.00;80.20;;;;;;5049231;28;20135;-69
2023/06/22 07:11:38;;;;;;;0.00;0.00;;;21.00;80.20;;;;;;5039081;28;20045;-69
2023/06/22 07:14:03;;;;;;;0.32;0.32;;;21.00;80.10;;;;;;5044557;28;20387;-69
2023/06/22 07:16:31;;;;;;;0.00;0.00;;;21.00;80.00;;;;;;5049272;28;20072;-69
2023/06/22 07:18:56;;;;;;;0.00;0.00;;;21.10;80.10;;;;;;5033588;28;20553;-69
2023/06/22 07:21:22;;;;;;;0.00;0.00;;;21.10;80.00;;;;;;5009004;28;20103;-69
2023/06/22 07:23:47;;;;;;;0.00;0.00;;;21.20;79.80;;;;;;5041853;28;20528;-70
2023/06/22 07:26:13;;;;;;;2.33;0.30;;;21.20;79.70;;;;;;5027326;28;21033;-69
2023/06/22 07:28:40;;;;;;;0.00;0.00;;;21.20;79.70;;;;;;5027059;28;20029;-69
2023/06/22 07:31:06;;;;;;;0.00;0.00;;;21.30;79.70;;;;;;5050202;28;20048;-69
2023/06/22 07:33:34;;;;;;;0.55;0.30;;;21.40;79.50;;;;;;5042655;28;20049;-68
2023/06/22 07:36:00;;;;;;;0.00;0.00;;;21.40;79.30;;;;;;5029524;28;20521;-68
2023/06/22 07:38:26;;;;;;;0.00;0.00;;;21.50;79.20;;;;;;5017875;28;20147;-68
2023/06/22 07:40:53;;;;;;;4.95;0.68;;;21.50;79.20;;;;;;5045981;28;20072;-68
2023/06/22 07:43:18;;;;;;;0.00;0.00;;;21.60;79.10;;;;;;5029593;28;20120;-68
2023/06/22 07:45:54;;;;;;;0.00;0.00;;;21.60;78.80;;;;;;5028388;28;20124;-65
2023/06/22 07:48:22;;;;;;;0.50;0.40;;;21.70;78.70;;;;;;5033066;28;20425;-68
2023/06/22 07:50:49;;;;;;;0.20;0.20;;;21.60;78.30;;;;;;5048890;28;20666;-68
2023/06/22 07:53:15;;;;;;;0.10;0.10;;;21.60;78.00;;;;;;5047384;28;20037;-69
2023/06/22 07:55:40;;;;;;;0.00;0.00;;;21.50;78.20;;;;;;5028446;28;20052;-68
2023/06/22 07:58:06;;;;;;;4.65;0.52;;;21.50;78.30;;;;;;5031115;28;20041;-67
2023/06/22 08:00:33;;;;;;;0.00;0.00;;;21.60;78.20;;;;;;5048159;28;20064;-67
2023/06/22 08:02:59;;;;;;;0.00;0.00;;;21.60;78.20;;;;;;5047202;28;20041;-68
2023/06/22 08:05:25;;;;;;;0.00;0.00;;;21.60;77.80;;;;;;5013021;28;20111;-68
2023/06/22 08:07:50;;;;;;;4.85;0.57;;;21.70;77.70;;;;;;5028976;28;20411;-68
2023/06/22 08:10:16;;;;;;;0.00;0.00;;;21.80;77.70;;;;;;5029244;28;20083;-68
2023/06/22 08:12:42;;;;;;;0.00;0.00;;;21.80;77.70;;;;;;5048575;28;20073;-68
2023/06/22 08:15:09;;;;;;;0.00;0.00;;;21.90;77.50;;;;;;5036774;28;20037;-68
2023/06/22 08:17:36;;;;;;;0.00;0.00;;;22.00;77.20;;;;;;5028820;28;20041;-67
2023/06/22 08:20:05;;;;;;;0.00;0.00;;;22.00;76.90;;;;;;5048161;28;20048;-70
2023/06/22 08:22:33;;;;;;;0.00;0.00;;;22.10;76.10;;;;;;5042805;28;20040;-71
2023/06/22 08:24:58;;;;;;;0.00;0.00;;;22.20;75.80;;;;;;5040870;28;20120;-69
2023/06/22 08:27:24;;;;;;;0.00;0.00;;;22.30;75.50;;;;;;5041070;28;20124;-68
2023/06/22 08:29:50;;;;;;;0.00;0.00;;;22.20;75.10;;;;;;5028484;28;20073;-66
2023/06/22 08:32:16;;;;;;;0.00;0.00;;;22.30;75.30;;;;;;5029104;28;20041;-66
2023/06/22 08:34:42;;;;;;;0.00;0.00;;;22.30;75.80;;;;;;5027384;28;20060;-66
2023/06/22 08:37:10;;;;;;;0.65;0.47;;;22.20;75.30;;;;;;5028873;28;20406;-66
2023/06/22 08:39:36;;;;;;;0.00;0.00;;;22.20;75.30;;;;;;5010801;28;20233;-66
2023/06/22 08:42:02;;;;;;;0.00;0.00;;;22.20;75.80;;;;;;5028900;28;20072;-66
2023/06/22 08:44:28;;;;;;;0.00;0.00;;;22.30;75.80;;;;;;5028776;28;20076;-66
2023/06/22 08:46:54;;;;;;;0.00;0.00;;;22.40;75.90;;;;;;5028340;28;20053;-66
2023/06/22 08:49:19;;;;;;;0.00;0.00;;;22.50;75.70;;;;;;5028918;28;20046;-66
2023/06/22 08:51:47;;;;;;;0.00;0.00;;;22.50;75.00;;;;;;5028673;28;20049;-66
2023/06/22 08:54:13;;;;;;;0.00;0.00;;;22.50;74.30;;;;;;5028756;28;20853;-66
2023/06/22 08:56:39;;;;;;;0.00;0.00;;;22.50;74.50;;;;;;5028610;28;20093;-66
2023/06/22 08:59:07;;;;;;;0.00;0.00;;;22.50;73.40;;;;;;5010412;28;20052;-66
2023/06/22 09:01:33;;;;;;;0.00;0.00;;;22.50;73.10;;;;;;5028703;28;20068;-66
2023/06/22 09:03:59;;;;;;;0.00;0.00;;;22.50;73.00;;;;;;5028512;28;20045;-66
2023/06/22 09:06:25;;;;;;;0.00;0.00;;;22.50;72.90;;;;;;5028700;28;20057;-66
2023/06/22 09:08:50;;;;;;;0.00;0.00;;;22.50;72.60;;;;;;5028425;28;20109;-66
2023/06/22 09:11:16;;;;;;;0.00;0.00;;;22.50;72.30;;;;;;5028689;28;20042;-66
2023/06/22 09:13:42;;;;;;;0.00;0.00;;;22.60;71.90;;;;;;5028639;28;20041;-66
2023/06/22 09:16:07;;;;;;;0.00;0.00;;;22.60;70.90;;;;;;5028091;28;20064;-66
2023/06/22 09:18:36;;;;;;;0.10;0.10;;;22.60;69.20;;;;;;5028638;28;20045;-66
2023/06/22 09:21:01;;;;;;;0.00;0.00;;;22.80;71.30;;;;;;5028431;28;20048;-66
2023/06/22 09:23:27;;;;;;;0.00;0.00;;;22.80;71.60;;;;;;5011630;28;20041;-66
2023/06/22 09:25:52;;;;;;;0.00;0.00;;;22.90;71.00;;;;;;4982325;28;20085;-67
2023/06/22 09:28:18;;;;;;;0.00;0.00;;;23.00;70.70;;;;;;4994386;28;20100;-66
2023/06/22 09:30:44;;;;;;;0.00;0.00;;;23.00;70.40;;;;;;5028833;28;20591;-66
2023/06/22 09:33:10;;;;;;;0.10;0.10;;;23.00;70.40;;;;;;5029528;28;20045;-66
2023/06/22 09:35:35;;;;;;;0.00;0.00;;;23.00;69.20;;;;;;5028247;28;20463;-66
2023/06/22 09:38:01;;;;;;;0.10;0.10;;;23.10;68.90;;;;;;5028409;28;20490;-66
2023/06/22 09:40:27;;;;;;;0.00;0.00;;;23.10;69.30;;;;;;5028610;28;20053;-66
2023/06/22 09:42:52;;;;;;;0.00;0.00;;;23.20;69.70;;;;;;5028297;28;20116;-66
2023/06/22 09:45:18;;;;;;;0.00;0.00;;;23.40;69.60;;;;;;5029727;28;20479;-67
2023/06/22 09:47:44;;;;;;;0.00;0.00;;;23.50;69.40;;;;;;5031586;28;20050;-66
2023/06/22 09:50:10;;;;;;;0.00;0.00;;;23.50;68.90;;;;;;5031654;28;20108;-66
2023/06/22 09:52:36;;;;;;;0.00;0.00;;;23.60;69.10;;;;;;5031621;28;20049;-66
2023/06/22 09:55:03;;;;;;;0.10;0.10;;;23.60;68.90;;;;;;5031839;28;20057;-66
2023/06/22 09:57:29;;;;;;;0.00;0.00;;;23.70;68.40;;;;;;5031632;28;20439;-67
2023/06/22 09:59:55;;;;;;;0.35;0.20;;;23.70;68.50;;;;;;5031226;28;20510;-66
2023/06/22 10:02:22;;;;;;;0.05;0.05;;;23.80;68.00;;;;;;5031550;28;20059;-66
2023/06/22 10:04:47;;;;;;;3.28;0.38;;;23.90;68.00;;;;;;5031521;28;20096;-65
2023/06/22 10:07:13;;;;;;;0.00;0.00;;;23.90;67.80;;;;;;5031775;28;20072;-66
2023/06/22 10:09:38;;;;;;;0.00;0.00;;;24.00;68.10;;;;;;4997383;28;20077;-66
2023/06/22 10:12:04;;;;;;;0.00;0.00;;;24.10;67.90;;;;;;5024957;28;20040;-65
2023/06/22 10:14:30;;;;;;;0.05;0.05;;;24.30;67.20;;;;;;5041848;28;20041;-66
2023/06/22 10:16:56;;;;;;;0.00;0.00;;;24.30;65.10;;;;;;5050662;28;20080;-66
2023/06/22 10:19:21;;;;;;;0.00;0.00;;;24.30;65.80;;;;;;5052171;28;20120;-67
2023/06/22 10:21:47;;;;;;;0.00;0.00;;;24.40;66.60;;;;;;5039802;28;20408;-66
2023/06/22 10:24:12;;;;;;;0.00;0.00;;;24.40;65.80;;;;;;5031315;28;20044;-65
2023/06/22 10:26:38;;;;;;;0.32;0.32;;;24.50;65.20;;;;;;5031049;28;20037;-66
2023/06/22 10:29:04;;;;;;;0.00;0.00;;;24.50;65.40;;;;;;5031124;28;20087;-65
2023/06/22 10:31:29;;;;;;;0.68;0.68;;;24.50;65.90;;;;;;4997399;28;20128;-65
2023/06/22 10:33:55;;;;;;;0.00;0.00;;;24.60;66.10;;;;;;5047066;28;20064;-66
2023/06/22 10:36:22;;;;;;;0.00;0.00;;;24.60;64.60;;;;;;5015262;28;20510;-65
2023/06/22 10:38:48;;;;;;;0.00;0.00;;;24.60;63.40;;;;;;5030936;28;20048;-66
2023/06/22 10:41:14;;;;;;;0.13;0.13;;;24.70;62.50;;;;;;5029878;28;20037;-65
2023/06/22 10:43:40;;;;;;;0.65;0.52;;;24.80;63.30;;;;;;5016432;28;20052;-65
2023/06/22 10:46:07;;;;;;;0.00;0.00;;;24.80;62.20;;;;;;5011341;28;20050;-66
2023/06/22 10:48:33;;;;;;;0.00;0.00;;;24.80;62.50;;;;;;5017038;28;20030;-65
2023/06/22 10:50:58;;;;;;;0.00;0.00;;;25.00;63.50;;;;;;5017906;28;20064;-67
2023/06/22 10:53:24;;;;;;;0.00;0.00;;;25.00;61.60;;;;;;5015981;28;20034;-66
2023/06/22 10:55:50;;;;;;;0.03;0.03;;;25.00;61.20;;;;;;5016096;28;20185;-66
2023/06/22 10:58:17;;;;;;;0.00;0.00;;;25.10;62.40;;;;;;5019444;28;20096;-66
2023/06/22 11:00:43;;;;;;;0.00;0.00;;;25.10;61.80;;;;;;5010606;28;20098;-67
2023/06/22 11:03:08;;;;;;;0.00;0.00;;;25.10;61.70;;;;;;5010454;28;20042;-67
2023/06/22 11:05:34;;;;;;;0.00;0.00;;;25.00;61.60;;;;;;5010541;28;20046;-67
2023/06/22 11:08:00;;;;;;;0.00;0.00;;;25.10;61.60;;;;;;5012717;28;20129;-66
2023/06/22 11:10:26;;;;;;;0.08;0.08;;;25.10;62.20;;;;;;5010692;28;20109;-66
2023/06/22 11:12:53;;;;;;;0.00;0.00;;;25.10;58.40;;;;;;5002688;28;20053;-66
2023/06/22 11:15:18;;;;;;;0.00;0.00;;;25.10;58.80;;;;;;5025499;28;20042;-66
2023/06/22 11:17:44;;;;;;;0.00;0.00;;;25.10;59.60;;;;;;5012956;28;20514;-65
2023/06/22 11:20:10;;;;;;;0.00;0.00;;;25.20;58.90;;;;;;5007692;28;20033;-66
2023/06/22 11:22:40;;;;;;;0.00;0.00;;;25.20;59.80;;;;;;5016214;28;20049;-66
2023/06/22 11:25:07;;;;;;;0.00;0.00;;;25.20;57.60;;;;;;5018053;28;20050;-66
2023/06/22 11:27:33;;;;;;;0.00;0.00;;;25.20;57.30;;;;;;4994057;28;20099;-66
2023/06/22 11:29:58;;;;;;;0.20;0.10;;;25.20;59.00;;;;;;5009743;28;20045;-66
2023/06/22 11:32:24;;;;;;;0.00;0.00;;;25.40;59.10;;;;;;5009871;28;20050;-65
2023/06/22 11:34:50;;;;;;;0.00;0.00;;;25.40;57.70;;;;;;5014799;28;20060;-66
2023/06/22 11:37:16;;;;;;;0.00;0.00;;;25.50;58.50;;;;;;5043271;28;20099;-68
2023/06/22 11:39:42;;;;;;;0.20;0.20;;;25.60;57.80;;;;;;5040702;28;20124;-69
2023/06/22 11:42:09;;;;;;;0.00;0.00;;;25.70;57.20;;;;;;5029709;28;20041;-69
2023/06/22 11:44:34;;;;;;;0.00;0.00;;;25.70;57.50;;;;;;5023587;28;20107;-69
2023/06/22 11:47:00;;;;;;;0.13;0.13;;;25.80;55.20;;;;;;5015815;28;20049;-69
2023/06/22 11:49:26;;;;;;;0.00;0.00;;;25.80;57.10;;;;;;5029483;28;20116;-68
2023/06/22 11:51:52;;;;;;;0.00;0.00;;;25.80;57.10;;;;;;5045132;28;20124;-69
2023/06/22 11:54:18;;;;;;;0.00;0.00;;;25.70;54.60;;;;;;5043859;28;20099;-69
2023/06/22 11:56:44;;;;;;;0.40;0.40;;;25.60;56.90;;;;;;5041236;28;20441;-69
2023/06/22 11:59:09;;;;;;;0.20;0.20;;;25.50;55.90;;;;;;5014915;28;20104;-69
2023/06/22 12:01:35;;;;;;;0.00;0.00;;;25.50;56.70;;;;;;5030818;28;20053;-66
2023/06/22 12:04:00;;;;;;;0.00;0.00;;;25.40;55.70;;;;;;5043936;28;20049;-66
2023/06/22 12:06:26;;;;;;;0.10;0.10;;;25.30;56.70;;;;;;5031148;28;20037;-65
2023/06/22 12:08:51;;;;;;;0.00;0.00;;;25.20;55.20;;;;;;5028238;28;20633;-65
2023/06/22 12:11:17;;;;;;;0.00;0.00;;;25.20;56.20;;;;;;5028648;28;20132;-65
2023/06/22 12:13:42;;;;;;;0.00;0.00;;;25.20;56.20;;;;;;5030482;28;20041;-66
2023/06/22 12:16:08;;;;;;;0.00;0.00;;;25.20;56.70;;;;;;5027549;28;21048;-65
2023/06/22 12:18:34;;;;;;;0.00;0.00;;;25.20;57.40;;;;;;5028885;28;20084;-66
2023/06/22 12:20:59;;;;;;;0.00;0.00;;;25.20;57.70;;;;;;5031127;28;20049;-66
2023/06/22 12:23:25;;;;;;;0.80;0.55;;;25.20;58.00;;;;;;5030286;28;20045;-65
2023/06/22 12:25:50;;;;;;;0.00;0.00;;;25.20;57.60;;;;;;5022110;28;20041;-65
2023/06/22 12:28:16;;;;;;;0.00;0.00;;;25.20;58.80;;;;;;5028190;28;20037;-66
2023/06/22 12:30:42;;;;;;;0.10;0.10;;;25.10;59.40;;;;;;5029141;28;20033;-66
2023/06/22 12:33:07;;;;;;;0.00;0.00;;;25.10;59.70;;;;;;5026948;28;20037;-66
2023/06/22 12:35:34;;;;;;;0.00;0.00;;;25.00;59.90;;;;;;4992264;28;20053;-66
2023/06/22 12:38:01;;;;;;;0.20;0.20;;;25.00;60.40;;;;;;5026851;28;20544;-66
2023/06/22 12:40:26;;;;;;;0.03;0.03;;;24.90;60.80;;;;;;5027418;28;20041;-66
2023/06/22 12:42:52;;;;;;;0.10;0.10;;;24.90;61.10;;;;;;5028293;28;20663;-66
2023/06/22 12:45:18;;;;;;;1.23;0.55;;;24.90;61.10;;;;;;5027537;28;20040;-65